createdAt,value
2023-01-26T00:02:10.942Z,61.37
2023-01-26T00:04:39.067Z,63.17
2023-01-26T00:07:06.755Z,58.43
2023-01-26T00:09:34.715Z,63.20
2023-01-26T00:12:02.443Z,60.67
2023-01-26T00:14:49.782Z,57.23
2023-01-26T00:17:26.238Z,62.00
2023-01-26T00:19:55.378Z,63.83
2023-01-26T00:22:23.344Z,56.00
2023-01-26T00:24:51.686Z,57.63
2023-01-26T00:27:19.567Z,61.57
2023-01-26T00:29:49.486Z,55.40
2023-01-26T00:32:17.554Z,64.00
2023-01-26T00:34:47.513Z,66.97
2023-01-26T00:37:15.242Z,64.90
2023-01-26T00:39:43.348Z,62.37
2023-01-26T00:42:13.718Z,61.63
2023-01-26T00:44:42.314Z,54.07
2023-01-26T00:47:10.867Z,55.60
2023-01-26T00:49:38.667Z,54.03
2023-01-26T00:52:08.127Z,55.30
2023-01-26T00:54:36.144Z,51.00
2023-01-26T00:57:04.069Z,53.37
2023-01-26T00:59:32.329Z,54.83
2023-01-26T01:02:01.305Z,57.50
2023-01-26T01:04:29.871Z,56.83
2023-01-26T01:06:57.893Z,54.23
2023-01-26T01:09:27.098Z,51.83
2023-01-26T01:11:56.071Z,52.77
2023-01-26T01:14:24.156Z,55.60
2023-01-26T01:16:52.991Z,58.60
2023-01-26T01:19:20.732Z,60.77
2023-01-26T01:21:48.588Z,66.33
2023-01-26T01:24:16.333Z,60.77
2023-01-26T01:26:45.696Z,65.57
2023-01-26T01:29:20.581Z,65.33
2023-01-26T01:31:48.502Z,63.10
2023-01-26T01:34:16.408Z,57.50
2023-01-26T01:36:44.355Z,62.53
2023-01-26T01:39:12.205Z,68.60
2023-01-26T01:41:43.064Z,57.77
2023-01-26T01:44:17.592Z,63.73
2023-01-26T01:46:47.680Z,64.33
2023-01-26T01:49:18.350Z,64.20
2023-01-26T01:51:47.204Z,64.03
2023-01-26T01:54:16.592Z,62.00
2023-01-26T01:56:46.057Z,67.73
2023-01-26T01:59:32.782Z,69.63
2023-01-26T02:02:00.534Z,65.80
2023-01-26T02:04:28.498Z,66.23
2023-01-26T02:06:58.159Z,64.37
2023-01-26T02:09:45.054Z,54.57
2023-01-26T02:12:13.322Z,58.70
2023-01-26T02:14:43.580Z,61.70
2023-01-26T02:17:11.349Z,62.77
2023-01-26T02:19:43.444Z,61.00
2023-01-26T02:22:13.982Z,60.83
2023-01-26T02:24:41.893Z,67.20
2023-01-26T02:27:10.973Z,64.80
2023-01-26T02:29:38.851Z,62.60
2023-01-26T02:32:06.739Z,60.53
2023-01-26T02:34:34.795Z,62.87
2023-01-26T02:37:02.512Z,61.93
2023-01-26T02:39:40.091Z,68.57
2023-01-26T02:42:25.495Z,65.07
2023-01-26T02:44:54.630Z,60.23
2023-01-26T02:47:22.637Z,62.07
2023-01-26T02:49:50.929Z,65.80
2023-01-26T02:52:20.500Z,67.97
2023-01-26T02:55:05.824Z,66.23
2023-01-26T02:57:34.350Z,68.80
2023-01-26T03:00:04.390Z,65.77
2023-01-26T03:02:32.055Z,61.83
2023-01-26T03:05:00.943Z,68.47
2023-01-26T03:07:29.225Z,63.97
2023-01-26T03:09:58.773Z,64.77
2023-01-26T03:12:26.668Z,61.83
2023-01-26T03:15:18.618Z,69.73
2023-01-26T03:17:47.688Z,74.13
2023-01-26T03:20:32.727Z,65.50
2023-01-26T03:23:18.333Z,71.43
2023-01-26T03:26:03.902Z,60.37
2023-01-26T03:28:32.378Z,65.77
2023-01-26T03:31:00.207Z,62.60
2023-01-26T03:33:29.565Z,55.67
2023-01-26T03:35:57.484Z,60.63
2023-01-26T03:38:25.205Z,51.47
2023-01-26T03:41:11.359Z,54.80
2023-01-26T03:43:58.997Z,52.43
2023-01-26T03:46:44.221Z,48.57
2023-01-26T03:49:31.001Z,50.07
2023-01-26T03:52:17.297Z,47.70
2023-01-26T03:55:06.862Z,52.00
2023-01-26T03:57:34.721Z,51.07
2023-01-26T04:00:02.603Z,53.90
2023-01-26T04:02:47.971Z,59.43
2023-01-26T04:05:35.036Z,61.37
2023-01-26T04:08:22.896Z,56.80
2023-01-26T04:10:52.134Z,56.70
2023-01-26T04:13:37.728Z,55.63
2023-01-26T04:16:23.655Z,60.63
2023-01-26T04:19:10.310Z,60.77
2023-01-26T04:21:39.501Z,56.90
2023-01-26T04:24:09.644Z,66.33
2023-01-26T04:26:38.603Z,56.37
2023-01-26T04:29:06.887Z,61.43
2023-01-26T04:31:35.999Z,51.77
2023-01-26T04:34:04.386Z,54.83
2023-01-26T04:36:32.268Z,57.90
2023-01-26T04:39:02.568Z,61.47
2023-01-26T04:41:30.390Z,59.60
2023-01-26T04:43:58.243Z,62.40
2023-01-26T04:46:26.131Z,60.50
2023-01-26T04:48:54.042Z,67.20
2023-01-26T04:51:22.460Z,63.03
2023-01-26T04:53:50.750Z,64.07
2023-01-26T04:56:22.647Z,59.70
2023-01-26T04:58:51.848Z,55.53
2023-01-26T05:01:19.805Z,55.70
2023-01-26T05:03:47.759Z,61.70
2023-01-26T05:06:15.518Z,52.23
2023-01-26T05:08:43.431Z,50.23
2023-01-26T05:11:11.113Z,54.30
2023-01-26T05:13:41.299Z,51.80
2023-01-26T05:16:09.446Z,53.97
2023-01-26T05:18:37.741Z,54.07
2023-01-26T05:21:05.910Z,55.50
2023-01-26T05:23:33.732Z,58.40
2023-01-26T05:26:01.528Z,55.70
2023-01-26T05:28:29.396Z,58.63
2023-01-26T05:30:58.467Z,59.73
2023-01-26T05:33:26.604Z,64.47
2023-01-26T05:35:54.303Z,56.00
2023-01-26T05:40:49.779Z,57.20
2023-01-26T05:43:17.607Z,52.97
2023-01-26T05:45:45.293Z,65.40
2023-01-26T05:48:14.417Z,58.73
2023-01-26T05:50:42.138Z,57.97
2023-01-26T05:53:09.886Z,64.70
2023-01-26T05:55:37.583Z,60.33
2023-01-26T05:58:05.223Z,65.97
2023-01-26T06:00:33.064Z,72.13
2023-01-26T06:03:00.931Z,61.00
2023-01-26T06:05:30.124Z,59.57
2023-01-26T06:07:57.849Z,65.67
2023-01-26T06:10:26.364Z,55.40
2023-01-26T06:12:54.072Z,64.47
2023-01-26T06:15:21.731Z,61.23
2023-01-26T06:17:49.527Z,62.43
2023-01-26T06:20:17.620Z,66.37
2023-01-26T06:22:46.727Z,66.73
2023-01-26T06:25:14.466Z,65.87
2023-01-26T06:27:43.317Z,65.03
2023-01-26T06:30:12.407Z,62.67
2023-01-26T06:32:40.428Z,62.40
2023-01-26T06:35:09.473Z,62.20
2023-01-26T06:37:37.145Z,58.13
2023-01-26T06:40:07.995Z,59.87
2023-01-26T06:42:37.142Z,64.60
2023-01-26T06:45:05.304Z,64.57
2023-01-26T06:47:35.909Z,60.10
2023-01-26T06:50:04.295Z,61.83
2023-01-26T06:52:32.691Z,60.23
2023-01-26T06:55:01.358Z,56.60
2023-01-26T06:57:31.948Z,59.33
2023-01-26T06:59:59.761Z,62.37
2023-01-26T07:02:27.677Z,64.67
2023-01-26T07:04:55.480Z,60.20
2023-01-26T07:07:23.380Z,60.37
2023-01-26T07:09:51.343Z,58.30
2023-01-26T07:12:19.309Z,59.57
2023-01-26T07:14:48.514Z,54.57
2023-01-26T07:17:16.354Z,59.37
2023-01-26T07:19:45.271Z,159.87
2023-01-26T07:22:14.845Z,57.63
2023-01-26T07:24:42.567Z,60.53
2023-01-26T07:27:10.354Z,56.03
2023-01-26T07:29:38.193Z,55.77
2023-01-26T07:32:08.510Z,53.63
2023-01-26T07:34:36.173Z,56.00
2023-01-26T07:37:05.096Z,58.63
2023-01-26T07:39:32.939Z,66.23
2023-01-26T07:42:00.636Z,55.57
2023-01-26T07:44:28.480Z,59.60
2023-01-26T07:46:56.206Z,61.37
2023-01-26T07:49:25.479Z,66.30
2023-01-26T07:51:54.060Z,60.30
2023-01-26T07:54:22.460Z,63.13
2023-01-26T07:56:52.523Z,59.87
2023-01-26T07:59:20.333Z,55.60
2023-01-26T08:01:49.657Z,60.07
2023-01-26T08:04:17.519Z,53.80
2023-01-26T08:06:46.544Z,53.73
2023-01-26T08:09:14.503Z,52.10
2023-01-26T08:11:42.206Z,52.73
2023-01-26T08:14:09.914Z,47.83
2023-01-26T08:16:37.711Z,44.50
2023-01-26T08:19:05.472Z,44.30
2023-01-26T08:21:33.205Z,45.40
2023-01-26T08:24:03.453Z,48.93
2023-01-26T08:26:31.214Z,46.40
2023-01-26T08:28:59.036Z,48.27
2023-01-26T08:31:28.235Z,47.03
2023-01-26T08:33:56.416Z,42.97
2023-01-26T08:36:27.012Z,46.50
2023-01-26T08:38:55.170Z,41.43
2023-01-26T08:41:24.285Z,44.40
2023-01-26T08:43:52.940Z,42.13
2023-01-26T08:46:20.926Z,46.50
2023-01-26T08:48:49.829Z,49.00
2023-01-26T08:51:17.691Z,47.33
2023-01-26T08:53:45.435Z,49.23
2023-01-26T08:56:13.600Z,50.97
2023-01-26T08:58:42.720Z,51.77
2023-01-26T09:01:12.456Z,50.13
2023-01-26T09:03:40.181Z,52.50
2023-01-26T09:06:08.671Z,50.30
2023-01-26T09:08:36.409Z,53.40
2023-01-26T09:11:05.981Z,51.60
2023-01-26T09:13:33.844Z,46.83
2023-01-26T09:16:05.995Z,52.40
2023-01-26T09:18:33.742Z,48.10
2023-01-26T09:21:05.583Z,47.13
2023-01-26T09:23:39.010Z,47.57
2023-01-26T09:26:14.153Z,46.97
2023-01-26T09:28:43.359Z,45.47
2023-01-26T09:31:12.975Z,46.80
2023-01-26T09:33:40.872Z,52.60
2023-01-26T09:36:10.070Z,46.77
2023-01-26T09:38:38.361Z,48.27
2023-01-26T09:41:07.475Z,47.13
2023-01-26T09:43:39.027Z,45.67
2023-01-26T09:46:17.009Z,44.47
2023-01-26T09:48:46.430Z,47.20
2023-01-26T09:51:17.114Z,52.17
2023-01-26T09:53:47.665Z,45.80
2023-01-26T09:56:17.993Z,48.13
2023-01-26T09:58:46.464Z,44.80
2023-01-26T10:01:18.502Z,47.03
2023-01-26T10:03:48.175Z,51.73
2023-01-26T10:06:21.484Z,49.77
2023-01-26T10:08:49.335Z,47.43
2023-01-26T10:11:19.018Z,47.90
2023-01-26T10:13:50.097Z,49.17
2023-01-26T10:16:19.340Z,46.50
2023-01-26T10:18:51.299Z,48.67
2023-01-26T10:21:56.449Z,47.50
2023-01-26T10:24:24.724Z,47.03
2023-01-26T10:26:54.006Z,49.87
2023-01-26T10:29:21.827Z,49.43
2023-01-26T10:31:50.920Z,51.13
2023-01-26T10:34:20.703Z,47.60
2023-01-26T10:36:48.554Z,44.70
2023-01-26T10:39:16.994Z,42.33
2023-01-26T10:41:57.654Z,44.10
2023-01-26T10:44:29.353Z,46.27
2023-01-26T10:47:06.193Z,46.87
2023-01-26T10:49:33.969Z,47.93
2023-01-26T10:52:09.778Z,48.27
2023-01-26T10:54:38.612Z,47.13
2023-01-26T10:57:07.533Z,49.33
2023-01-26T10:59:36.067Z,50.53
2023-01-26T11:02:21.751Z,47.37
2023-01-26T11:05:03.257Z,51.43
2023-01-26T11:07:34.184Z,42.00
2023-01-26T11:10:18.813Z,43.23
2023-01-26T11:12:46.559Z,45.77
2023-01-26T11:15:17.826Z,43.43
2023-01-26T11:17:50.546Z,43.63
2023-01-26T11:20:45.852Z,41.67
2023-01-26T11:23:18.515Z,39.67
2023-01-26T11:25:51.577Z,39.33
2023-01-26T11:28:29.275Z,44.57
2023-01-26T11:31:04.092Z,50.77
2023-01-26T11:33:36.110Z,42.53
2023-01-26T11:36:07.072Z,43.27
2023-01-26T11:38:40.273Z,34.67
2023-01-26T11:41:20.649Z,40.27
2023-01-26T11:44:13.496Z,42.77
2023-01-26T11:46:48.628Z,41.40
2023-01-26T11:49:25.111Z,40.53
2023-01-26T11:52:00.028Z,35.23
2023-01-26T11:54:36.162Z,40.00
2023-01-26T11:57:08.450Z,32.13
2023-01-26T11:59:39.914Z,32.50
2023-01-26T12:02:18.783Z,33.87
2023-01-26T12:04:48.104Z,31.40
2023-01-26T12:07:19.272Z,30.80
2023-01-26T12:09:48.145Z,29.37
2023-01-26T12:12:18.372Z,32.20
2023-01-26T12:14:48.977Z,24.20
2023-01-26T12:17:35.177Z,24.50
2023-01-26T12:20:14.404Z,26.53
2023-01-26T12:22:43.620Z,24.10
2023-01-26T12:25:24.216Z,26.37
2023-01-26T12:27:55.899Z,24.97
2023-01-26T12:30:28.443Z,29.83
2023-01-26T12:32:56.434Z,21.40
2023-01-26T12:35:32.899Z,22.73
2023-01-26T12:38:17.207Z,21.20
2023-01-26T12:40:48.081Z,18.40
2023-01-26T12:43:24.310Z,19.33
2023-01-26T12:45:52.862Z,19.23
2023-01-26T12:48:22.688Z,22.77
2023-01-26T12:50:52.773Z,17.63
2023-01-26T12:53:21.938Z,18.40
2023-01-26T12:55:52.711Z,21.73
2023-01-26T12:58:22.487Z,17.67
2023-01-26T13:00:54.971Z,20.07
2023-01-26T13:03:25.107Z,16.07
2023-01-26T13:06:01.994Z,18.50
2023-01-26T13:09:04.481Z,15.03
2023-01-26T13:11:45.865Z,13.93
2023-01-26T13:14:37.371Z,13.73
2023-01-26T13:17:43.040Z,10.80
2023-01-26T13:20:36.521Z,10.27
2023-01-26T13:23:27.954Z,11.00
2023-01-26T13:26:20.586Z,12.87
2023-01-26T13:28:48.989Z,11.70
2023-01-26T13:31:31.219Z,10.97
2023-01-26T13:34:00.349Z,10.77
2023-01-26T13:36:28.104Z,7.73
2023-01-26T13:38:59.612Z,12.83
2023-01-26T13:41:27.297Z,10.07
2023-01-26T13:43:56.916Z,10.17
2023-01-26T13:46:26.811Z,11.13
2023-01-26T13:48:55.280Z,13.87
2023-01-26T13:51:24.295Z,10.10
2023-01-26T13:56:29.593Z,9.07
2023-01-26T13:59:05.173Z,6.87
2023-01-26T14:04:14.300Z,6.57
2023-01-26T14:06:43.028Z,11.83
2023-01-26T14:09:12.139Z,6.10
2023-01-26T14:11:41.377Z,6.37
2023-01-26T14:14:18.697Z,4.83
2023-01-26T14:16:46.576Z,8.47
2023-01-26T14:19:16.187Z,6.10
2023-01-26T14:21:48.031Z,6.53
2023-01-26T14:24:15.876Z,10.83
2023-01-26T14:26:45.294Z,6.23
2023-01-26T14:29:14.391Z,5.57
2023-01-26T14:31:42.096Z,4.93
2023-01-26T14:34:10.709Z,4.77
2023-01-26T14:36:39.248Z,5.30
2023-01-26T14:39:16.184Z,6.57
2023-01-26T14:41:45.296Z,6.77
2023-01-26T14:44:13.108Z,4.70
2023-01-26T14:46:50.379Z,5.70
2023-01-26T14:49:20.620Z,6.00
2023-01-26T14:51:48.445Z,7.63
2023-01-26T14:54:18.794Z,9.63
2023-01-26T14:56:48.708Z,14.00
2023-01-26T14:59:20.094Z,14.93
2023-01-26T15:01:48.299Z,14.60
2023-01-26T15:04:22.288Z,14.03
2023-01-26T15:06:50.288Z,13.90
2023-01-26T15:09:22.375Z,16.00
2023-01-26T15:12:12.673Z,19.30
2023-01-26T15:14:49.077Z,18.50
2023-01-26T15:17:31.551Z,17.50
2023-01-26T15:19:59.442Z,17.87
2023-01-26T15:22:27.336Z,19.43
2023-01-26T15:25:07.341Z,23.70
2023-01-26T15:27:36.946Z,24.23
2023-01-26T15:30:06.542Z,24.93
2023-01-26T15:32:39.329Z,24.90
2023-01-26T15:35:24.357Z,23.93
2023-01-26T15:38:02.020Z,24.57
2023-01-26T15:40:29.823Z,19.93
2023-01-26T15:43:14.430Z,21.30
2023-01-26T15:45:43.408Z,26.07
2023-01-26T15:48:11.092Z,24.63
2023-01-26T15:50:38.917Z,23.23
2023-01-26T15:53:06.694Z,28.70
2023-01-26T15:55:34.545Z,25.73
2023-01-26T15:58:02.340Z,30.30
2023-01-26T16:00:31.409Z,28.50
2023-01-26T16:02:59.217Z,27.40
2023-01-26T16:05:27.851Z,24.60
2023-01-26T16:07:55.549Z,27.20
2023-01-26T16:10:23.278Z,26.23
2023-01-26T16:12:52.530Z,33.70
2023-01-26T16:15:29.228Z,27.77
2023-01-26T16:17:58.988Z,30.87
2023-01-26T16:20:26.738Z,32.23
2023-01-26T16:22:54.545Z,33.57
2023-01-26T16:25:24.418Z,28.47
2023-01-26T16:27:53.666Z,29.33
2023-01-26T16:30:21.689Z,32.47
2023-01-26T16:32:49.384Z,29.00
2023-01-26T16:35:19.805Z,28.60
2023-01-26T16:37:47.611Z,32.30
2023-01-26T16:40:17.351Z,33.93
2023-01-26T16:42:45.975Z,27.80
2023-01-26T16:45:16.193Z,32.27
2023-01-26T16:47:44.106Z,23.80
2023-01-26T16:50:12.244Z,28.07
2023-01-26T16:52:42.664Z,26.10
2023-01-26T16:55:12.888Z,27.13
2023-01-26T16:57:42.225Z,29.00
2023-01-26T17:00:14.107Z,25.27
2023-01-26T17:02:41.930Z,28.43
2023-01-26T17:05:13.904Z,28.37
2023-01-26T17:07:43.185Z,28.87
2023-01-26T17:10:12.013Z,28.63
2023-01-26T17:12:39.872Z,25.10
2023-01-26T17:15:08.775Z,24.33
2023-01-26T17:17:36.603Z,33.30
2023-01-26T17:20:17.966Z,31.73
2023-01-26T17:22:48.494Z,26.40
2023-01-26T17:25:17.234Z,28.43
2023-01-26T17:27:46.057Z,33.37
2023-01-26T17:30:14.270Z,32.37
2023-01-26T17:32:43.183Z,35.40
2023-01-26T17:35:11.297Z,31.97
2023-01-26T17:37:40.145Z,29.10
2023-01-26T17:40:10.674Z,30.93
2023-01-26T17:42:38.605Z,31.70
2023-01-26T17:45:07.955Z,35.30
2023-01-26T17:47:35.625Z,31.07
2023-01-26T17:50:04.708Z,33.40
2023-01-26T17:52:35.249Z,30.47
2023-01-26T17:55:05.246Z,27.23
2023-01-26T17:57:34.420Z,30.60
2023-01-26T18:00:02.176Z,34.33
2023-01-26T18:02:29.965Z,33.07
2023-01-26T18:04:57.719Z,45.40
2023-01-26T18:07:43.526Z,30.83
2023-01-26T18:10:17.855Z,35.03
2023-01-26T18:12:47.765Z,32.47
2023-01-26T18:15:15.572Z,32.43
2023-01-26T18:17:50.760Z,39.30
2023-01-26T18:20:28.223Z,37.40
2023-01-26T18:22:56.203Z,38.30
2023-01-26T18:25:26.551Z,40.00
2023-01-26T18:27:58.532Z,34.17
2023-01-26T18:30:26.375Z,45.53
2023-01-26T18:33:21.740Z,41.20
2023-01-26T18:36:05.273Z,35.27
2023-01-26T18:38:33.221Z,38.93
2023-01-26T18:41:07.803Z,49.57
2023-01-26T18:43:39.987Z,40.70
2023-01-26T18:46:08.589Z,41.00
2023-01-26T18:48:36.505Z,43.70
2023-01-26T18:51:04.579Z,44.07
2023-01-26T18:53:33.440Z,41.23
2023-01-26T18:56:04.961Z,45.40
2023-01-26T18:58:32.798Z,44.23
2023-01-26T19:01:04.232Z,41.80
2023-01-26T19:03:31.948Z,41.50
2023-01-26T19:06:02.177Z,33.30
2023-01-26T19:08:29.858Z,38.30
2023-01-26T19:10:57.752Z,36.47
2023-01-26T19:13:25.521Z,40.53
2023-01-26T19:15:54.244Z,42.53
2023-01-26T19:18:23.644Z,45.03
2023-01-26T19:20:56.686Z,41.13
2023-01-26T19:23:24.382Z,47.20
2023-01-26T19:25:52.172Z,38.80
2023-01-26T19:28:20.137Z,49.10
2023-01-26T19:30:48.039Z,47.63
2023-01-26T19:33:29.117Z,53.70
2023-01-26T19:35:58.413Z,47.97
2023-01-26T19:38:26.355Z,48.70
2023-01-26T19:40:54.144Z,55.30
2023-01-26T19:43:26.154Z,46.10
2023-01-26T19:45:54.790Z,46.50
2023-01-26T19:48:23.104Z,60.37
2023-01-26T19:51:03.345Z,56.57
2023-01-26T19:56:00.375Z,50.57
2023-01-26T19:58:28.376Z,55.00
2023-01-26T20:01:00.250Z,52.10
2023-01-26T20:03:28.241Z,58.07
2023-01-26T20:05:55.922Z,53.00
2023-01-26T20:08:25.064Z,72.27
2023-01-26T20:10:52.808Z,53.03
2023-01-26T20:13:21.447Z,59.73
2023-01-26T20:15:49.458Z,63.17
2023-01-26T20:18:17.411Z,55.13
2023-01-26T20:20:49.497Z,55.70
2023-01-26T20:23:17.288Z,51.60
2023-01-26T20:25:46.404Z,62.87
2023-01-26T20:28:14.180Z,57.67
2023-01-26T20:30:42.324Z,53.30
2023-01-26T20:33:10.177Z,51.83
2023-01-26T20:35:40.108Z,52.93
2023-01-26T20:38:08.185Z,51.63
2023-01-26T20:40:35.969Z,55.43
2023-01-26T20:43:05.029Z,50.13
2023-01-26T20:45:32.839Z,52.67
2023-01-26T20:48:00.635Z,51.37
2023-01-26T20:50:28.510Z,44.63
2023-01-26T20:52:56.606Z,47.73
2023-01-26T20:55:24.428Z,42.80
2023-01-26T20:57:52.211Z,43.10
2023-01-26T21:00:22.771Z,43.40
2023-01-26T21:02:50.417Z,41.60
2023-01-26T21:05:19.359Z,32.27
2023-01-26T21:07:47.138Z,39.27
2023-01-26T21:10:14.941Z,35.53
2023-01-26T21:12:42.775Z,29.90
2023-01-26T21:15:11.648Z,28.00
2023-01-26T21:17:40.737Z,35.83
2023-01-26T21:20:10.503Z,30.57
2023-01-26T21:22:38.481Z,39.43
2023-01-26T21:25:06.700Z,29.97
2023-01-26T21:27:35.019Z,33.17
2023-01-26T21:30:02.699Z,28.80
2023-01-26T21:32:30.463Z,28.03
2023-01-26T21:34:59.550Z,34.37
2023-01-26T21:37:27.412Z,25.37
2023-01-26T21:39:55.132Z,22.73
2023-01-26T21:42:22.907Z,27.30
2023-01-26T21:45:08.196Z,21.90
2023-01-26T21:47:35.946Z,21.73
2023-01-26T21:50:05.687Z,24.97
2023-01-26T21:52:51.028Z,21.83
2023-01-26T21:55:18.831Z,28.27
2023-01-26T21:58:03.916Z,21.47
2023-01-26T22:00:34.389Z,21.00
2023-01-26T22:03:02.277Z,22.40
2023-01-26T22:05:31.406Z,24.20
2023-01-26T22:07:59.057Z,20.67
2023-01-26T22:10:27.594Z,26.10
2023-01-26T22:12:55.885Z,26.57
2023-01-26T22:15:23.801Z,26.33
2023-01-26T22:17:51.501Z,22.83
2023-01-26T22:20:19.533Z,23.23
2023-01-26T22:22:48.566Z,21.87
2023-01-26T22:25:16.473Z,22.83
2023-01-26T22:27:44.457Z,21.40
2023-01-26T22:30:13.461Z,19.80
2023-01-26T22:32:41.549Z,18.50
2023-01-26T22:35:10.425Z,17.57
2023-01-26T22:37:39.160Z,18.70
2023-01-26T22:40:10.423Z,19.80
2023-01-26T22:42:38.272Z,13.57
2023-01-26T22:45:07.067Z,17.30
2023-01-26T22:47:35.759Z,22.83
2023-01-26T22:50:03.550Z,16.00
2023-01-26T22:52:31.296Z,15.07
2023-01-26T22:54:58.992Z,16.27
2023-01-26T22:57:28.194Z,15.50
2023-01-26T22:59:55.922Z,17.93
2023-01-26T23:02:23.769Z,15.07
2023-01-26T23:04:51.405Z,16.03
2023-01-26T23:07:19.238Z,16.83
2023-01-26T23:09:47.320Z,15.00
2023-01-26T23:12:15.092Z,16.73
2023-01-26T23:14:44.139Z,12.83
2023-01-26T23:17:12.275Z,18.07
2023-01-26T23:19:39.898Z,16.83
2023-01-26T23:22:07.712Z,15.57
2023-01-26T23:24:35.501Z,17.60
2023-01-26T23:27:03.260Z,14.20
2023-01-26T23:29:31.041Z,18.07
2023-01-26T23:32:00.169Z,16.70
2023-01-26T23:34:28.017Z,13.17
2023-01-26T23:36:55.686Z,16.83
2023-01-26T23:39:23.411Z,13.80
2023-01-26T23:41:51.080Z,18.30
2023-01-26T23:44:18.877Z,16.20
2023-01-26T23:46:46.731Z,15.40
2023-01-26T23:49:15.890Z,15.33
2023-01-26T23:51:45.354Z,17.10
2023-01-26T23:54:12.988Z,17.27
2023-01-26T23:56:40.658Z,13.17
2023-01-26T23:59:08.476Z,16.47
